createdAt,value
2018-01-08T00:00:07.105Z,14.42
2018-01-08T00:02:35.436Z,11.98
2018-01-08T00:05:09.806Z,9.86
2018-01-08T00:07:38.074Z,11.68
2018-01-08T00:10:05.550Z,9.64
2018-01-08T00:12:33.834Z,12.72
2018-01-08T00:15:07.945Z,12.84
2018-01-08T00:17:36.225Z,9.94
2018-01-08T00:20:06.422Z,10.34
2018-01-08T00:22:34.690Z,10.50
2018-01-08T00:25:15.797Z,10.18
2018-01-08T00:27:44.054Z,12.64
2018-01-08T00:33:04.973Z,11.92
2018-01-08T00:35:33.261Z,12.30
2018-01-08T00:38:09.567Z,11.18
2018-01-08T00:40:37.844Z,9.34
2018-01-08T00:43:06.096Z,11.96
2018-01-08T00:45:34.345Z,15.42
2018-01-08T00:50:55.776Z,10.68
2018-01-08T00:53:24.049Z,9.72
2018-01-08T00:55:52.299Z,14.08
2018-01-08T00:58:20.594Z,13.86
2018-01-08T01:03:46.950Z,13.56
2018-01-08T01:06:15.226Z,11.02
2018-01-08T01:08:43.507Z,11.64
2018-01-08T01:11:11.749Z,12.10
2018-01-08T01:13:41.182Z,9.42
2018-01-08T01:16:09.437Z,10.06
2018-01-08T01:19:01.277Z,10.36
2018-01-08T01:21:29.522Z,13.42
2018-01-08T01:24:01.741Z,14.88
2018-01-08T01:26:30.004Z,10.74
2018-01-08T01:29:14.865Z,11.16
2018-01-08T01:31:43.114Z,29.16
2018-01-08T01:34:29.081Z,12.40
2018-01-08T01:36:58.052Z,12.68
2018-01-08T01:39:29.784Z,11.48
2018-01-08T01:41:58.725Z,16.52
2018-01-08T01:44:26.983Z,14.24
2018-01-08T01:47:15.420Z,16.88
2018-01-08T01:49:43.661Z,13.48
2018-01-08T01:52:24.946Z,11.88
2018-01-08T01:54:53.206Z,15.62
2018-01-08T01:57:21.473Z,13.08
2018-01-08T01:59:49.741Z,16.08
2018-01-08T02:02:18.013Z,14.44
2018-01-08T02:04:46.264Z,14.00
2018-01-08T02:07:18.496Z,13.42
2018-01-08T02:09:46.749Z,15.32
2018-01-08T02:12:31.942Z,15.78
2018-01-08T02:15:00.201Z,13.22
2018-01-08T02:17:33.537Z,11.82
2018-01-08T02:20:01.046Z,12.02
2018-01-08T02:22:39.185Z,14.08
2018-01-08T02:25:07.482Z,11.20
2018-01-08T02:27:46.165Z,11.24
2018-01-08T02:30:14.437Z,14.64
2018-01-08T02:32:44.629Z,10.50
2018-01-08T02:35:12.911Z,11.56
2018-01-08T02:37:47.968Z,12.04
2018-01-08T02:40:16.253Z,12.66
2018-01-08T02:42:48.422Z,11.66
2018-01-08T02:45:16.661Z,11.16
2018-01-08T02:47:45.917Z,11.14
2018-01-08T02:50:14.187Z,15.82
2018-01-08T02:52:52.754Z,11.36
2018-01-08T02:55:21.041Z,13.48
2018-01-08T02:57:57.261Z,14.16
2018-01-08T03:00:25.564Z,12.74
2018-01-08T03:03:04.198Z,16.90
2018-01-08T03:05:32.462Z,15.06
2018-01-08T03:08:06.606Z,11.88
2018-01-08T03:10:34.091Z,15.42
2018-01-08T03:13:02.386Z,12.66
2018-01-08T03:15:29.876Z,12.80
2018-01-08T03:18:08.595Z,13.76
2018-01-08T03:20:36.858Z,16.04
2018-01-08T03:25:59.330Z,11.82
2018-01-08T03:28:27.622Z,13.30
2018-01-08T03:31:03.883Z,14.04
2018-01-08T03:33:32.178Z,14.80
2018-01-08T03:36:00.430Z,14.86
2018-01-08T03:38:30.094Z,17.38
2018-01-08T03:41:04.991Z,12.16
2018-01-08T03:43:33.278Z,14.54
2018-01-08T03:46:10.438Z,14.90
2018-01-08T03:48:39.088Z,12.80
2018-01-08T03:51:14.246Z,12.48
2018-01-08T03:53:42.548Z,17.28
2018-01-08T03:56:14.716Z,14.98
2018-01-08T03:58:42.967Z,15.14
2018-01-08T04:04:06.535Z,14.22
2018-01-08T04:06:34.832Z,15.62
2018-01-08T04:09:11.201Z,15.86
2018-01-08T04:11:39.494Z,18.26
2018-01-08T04:14:25.182Z,17.38
2018-01-08T04:16:52.716Z,16.92
2018-01-08T04:19:22.963Z,16.48
2018-01-08T04:21:51.263Z,16.66
2018-01-08T04:24:36.410Z,16.78
2018-01-08T04:27:04.703Z,17.66
2018-01-08T04:29:49.450Z,17.12
2018-01-08T04:32:17.710Z,16.18
2018-01-08T04:34:45.223Z,15.90
2018-01-08T04:37:13.529Z,17.06
2018-01-08T04:39:41.837Z,16.08
2018-01-08T04:42:10.103Z,14.62
2018-01-08T04:44:38.367Z,16.66
2018-01-08T04:47:06.667Z,17.48
2018-01-08T04:49:56.020Z,14.20
2018-01-08T04:52:24.308Z,15.10
2018-01-08T04:54:52.575Z,15.32
2018-01-08T04:57:20.869Z,15.80
2018-01-08T04:59:54.225Z,17.26
2018-01-08T05:02:22.510Z,13.96
2018-01-08T05:04:50.814Z,15.60
2018-01-08T05:07:19.119Z,23.12
2018-01-08T05:10:00.062Z,18.54
2018-01-08T05:12:29.198Z,15.46
2018-01-08T05:14:58.459Z,19.98
2018-01-08T05:17:26.726Z,15.34
2018-01-08T05:22:49.404Z,20.10
2018-01-08T05:25:17.690Z,20.80
2018-01-08T05:27:56.021Z,16.62
2018-01-08T05:30:24.325Z,24.56
2018-01-08T05:32:54.500Z,17.80
2018-01-08T05:35:22.801Z,15.22
2018-01-08T05:38:07.936Z,16.06
2018-01-08T05:40:36.238Z,20.22
2018-01-08T05:43:06.475Z,15.96
2018-01-08T05:45:34.738Z,17.96
2018-01-08T05:48:17.976Z,16.58
2018-01-08T05:50:46.275Z,15.44
2018-01-08T05:53:28.848Z,15.32
2018-01-08T05:55:58.433Z,13.82
2018-01-08T05:58:26.687Z,17.10
2018-01-08T06:00:54.971Z,12.06
2018-01-08T06:03:23.227Z,21.26
2018-01-08T06:05:51.531Z,19.40
2018-01-08T06:08:34.183Z,15.78
2018-01-08T06:11:02.471Z,17.14
2018-01-08T06:13:30.791Z,14.98
2018-01-08T06:16:00.119Z,16.38
2018-01-08T06:18:34.647Z,15.88
2018-01-08T06:21:02.919Z,16.38
2018-01-08T06:26:44.363Z,16.68
2018-01-08T06:29:12.652Z,20.64
2018-01-08T06:31:43.009Z,18.60
2018-01-08T06:34:11.286Z,16.22
2018-01-08T06:36:39.564Z,16.70
2018-01-08T06:39:07.865Z,17.32
2018-01-08T06:41:36.128Z,17.24
2018-01-08T06:44:05.344Z,20.64
2018-01-08T06:46:33.627Z,12.18
2018-01-08T06:49:08.995Z,20.60
2018-01-08T06:51:37.263Z,16.52
2018-01-08T06:54:05.537Z,16.30
2018-01-08T06:56:33.839Z,18.52
2018-01-08T06:59:02.106Z,15.62
2018-01-08T07:01:49.500Z,16.40
2018-01-08T07:04:17.750Z,18.20
2018-01-08T07:12:46.520Z,21.54
2018-01-08T07:15:14.793Z,17.62
2018-01-08T07:17:51.039Z,17.18
2018-01-08T07:20:19.298Z,23.92
2018-01-08T07:22:57.286Z,18.66
2018-01-08T07:25:25.562Z,16.64
2018-01-08T07:28:04.261Z,16.56
2018-01-08T07:30:32.520Z,13.18
2018-01-08T07:33:00.824Z,13.06
2018-01-08T07:35:30.113Z,19.28
2018-01-08T07:37:58.872Z,13.80
2018-01-08T07:40:29.162Z,14.20
2018-01-08T07:42:58.253Z,17.12
2018-01-08T07:45:29.296Z,13.14
2018-01-08T07:47:58.249Z,16.90
2018-01-08T07:50:26.539Z,20.28
2018-01-08T07:52:54.796Z,12.20
2018-01-08T07:55:23.092Z,15.04
2018-01-08T07:57:51.356Z,13.88
2018-01-08T08:00:29.415Z,19.62
2018-01-08T08:02:57.671Z,14.14
2018-01-08T08:05:25.935Z,13.18
2018-01-08T08:07:54.227Z,18.32
2018-01-08T08:10:22.535Z,16.30
2018-01-08T08:12:50.801Z,15.18
2018-01-08T08:15:20.125Z,16.98
2018-01-08T08:17:48.338Z,21.14
2018-01-08T08:20:19.947Z,15.40
2018-01-08T08:22:47.491Z,19.32
2018-01-08T08:25:16.755Z,16.06
2018-01-08T08:27:45.024Z,20.70
2018-01-08T08:30:19.904Z,13.10
2018-01-08T08:32:48.176Z,14.28
2018-01-08T08:35:18.399Z,16.32
2018-01-08T08:37:46.666Z,18.80
2018-01-08T08:46:14.831Z,18.94
2018-01-08T08:48:43.173Z,18.18
2018-01-08T08:51:21.161Z,18.28
2018-01-08T08:53:49.456Z,14.98
2018-01-08T08:56:22.309Z,14.84
2018-01-08T08:58:50.595Z,12.46
2018-01-08T09:01:18.861Z,16.34
2018-01-08T09:03:47.151Z,16.66
2018-01-08T09:06:25.195Z,18.20
2018-01-08T09:08:53.479Z,17.96
2018-01-08T09:11:21.772Z,14.96
2018-01-08T09:13:50.034Z,16.70
2018-01-08T09:16:22.698Z,18.48
2018-01-08T09:18:50.946Z,15.80
2018-01-08T09:21:19.242Z,20.12
2018-01-08T09:23:47.520Z,15.74
2018-01-08T09:26:19.655Z,19.50
2018-01-08T09:28:47.925Z,17.94
2018-01-08T09:31:16.183Z,17.38
2018-01-08T09:33:44.475Z,16.80
2018-01-08T09:36:12.736Z,18.02
2018-01-08T09:38:41.028Z,17.44
2018-01-08T09:41:09.290Z,17.38
2018-01-08T09:43:37.578Z,17.82
2018-01-08T09:46:16.628Z,19.02
2018-01-08T09:48:44.921Z,16.14
2018-01-08T09:51:13.173Z,18.30
2018-01-08T09:53:41.435Z,15.64
2018-01-08T09:56:09.718Z,15.16
2018-01-08T09:58:38.004Z,24.20
2018-01-08T10:01:06.286Z,17.36
2018-01-08T10:03:46.266Z,19.74
2018-01-08T10:06:26.393Z,21.52
2018-01-08T10:09:06.499Z,16.90
2018-01-08T10:11:46.606Z,22.78
2018-01-08T10:14:36.347Z,22.28
2018-01-08T10:17:21.366Z,26.94
2018-01-08T10:20:08.510Z,17.26
2018-01-08T10:22:36.800Z,15.94
2018-01-08T10:25:05.082Z,21.26
2018-01-08T10:27:33.378Z,17.92
2018-01-08T10:30:07.288Z,17.48
2018-01-08T10:32:34.814Z,20.36
2018-01-08T10:35:06.451Z,22.98
2018-01-08T10:37:34.748Z,20.30
2018-01-08T10:40:26.253Z,17.62
2018-01-08T10:43:00.136Z,82.20
2018-01-08T10:45:36.042Z,265.80
2018-01-08T10:48:13.444Z,122.38
2018-01-08T10:50:47.267Z,51.16
2018-01-08T10:53:30.463Z,27.20
2018-01-08T10:55:59.682Z,35.64
2018-01-08T10:58:28.954Z,23.62
2018-01-08T11:01:03.909Z,18.82
2018-01-08T11:03:37.723Z,22.18
2018-01-08T11:06:11.354Z,17.80
2018-01-08T11:08:39.627Z,20.72
2018-01-08T11:11:11.557Z,21.04
2018-01-08T11:13:59.043Z,27.72
2018-01-08T11:16:28.525Z,16.80
2018-01-08T11:21:49.799Z,17.96
2018-01-08T11:24:18.066Z,19.38
2018-01-08T11:26:46.383Z,19.56
2018-01-08T11:29:14.642Z,16.58
2018-01-08T11:31:42.910Z,18.94
2018-01-08T11:34:11.193Z,19.40
2018-01-08T11:36:46.561Z,19.30
2018-01-08T11:39:14.891Z,18.66
2018-01-08T11:41:43.158Z,16.52
2018-01-08T11:44:11.455Z,18.44
2018-01-08T11:46:39.736Z,14.52
2018-01-08T11:49:24.984Z,18.96
2018-01-08T11:51:53.250Z,17.16
2018-01-08T11:54:38.943Z,20.70
2018-01-08T11:57:07.212Z,26.62
2018-01-08T11:59:35.466Z,19.86
2018-01-08T12:02:03.755Z,39.66
2018-01-08T12:07:25.246Z,17.76
2018-01-08T12:09:53.530Z,16.66
2018-01-08T12:15:14.752Z,16.88
2018-01-08T12:17:46.325Z,29.30
2018-01-08T12:20:14.610Z,18.82
2018-01-08T12:22:43.807Z,17.74
2018-01-08T12:25:12.088Z,15.42
2018-01-08T12:27:42.293Z,19.84
2018-01-08T12:30:10.576Z,18.84
2018-01-08T12:32:38.880Z,16.42
2018-01-08T12:35:08.132Z,17.18
2018-01-08T12:37:36.414Z,26.50
2018-01-08T12:40:09.199Z,19.88
2018-01-08T12:42:37.479Z,19.52
2018-01-08T12:45:12.793Z,18.90
2018-01-08T12:47:41.075Z,26.20
2018-01-08T12:50:10.330Z,18.44
2018-01-08T12:52:38.577Z,17.80
2018-01-08T12:55:08.774Z,16.18
2018-01-08T12:57:37.040Z,20.86
2018-01-08T13:00:15.196Z,19.22
2018-01-08T13:02:43.496Z,16.50
2018-01-08T13:05:11.786Z,20.16
2018-01-08T13:07:43.166Z,16.78
2018-01-08T13:10:11.479Z,18.14
2018-01-08T13:12:45.983Z,14.36
2018-01-08T13:15:14.279Z,20.92
2018-01-08T13:17:42.544Z,25.36
2018-01-08T13:20:10.811Z,16.82
2018-01-08T13:22:39.149Z,17.04
2018-01-08T13:25:07.421Z,18.90
2018-01-08T13:27:35.754Z,20.58
2018-01-08T13:30:04.026Z,22.78
2018-01-08T13:32:32.287Z,20.34
2018-01-08T13:35:12.769Z,19.12
2018-01-08T13:37:41.023Z,16.72
2018-01-08T13:43:05.789Z,19.32
2018-01-08T13:45:34.087Z,16.78
2018-01-08T13:48:02.387Z,21.62
2018-01-08T13:50:29.918Z,18.00
2018-01-08T13:53:00.959Z,16.20
2018-01-08T13:55:30.538Z,20.20
2018-01-08T13:58:08.692Z,18.20
2018-01-08T14:00:37.005Z,23.10
2018-01-08T14:03:19.587Z,23.18
2018-01-08T14:05:47.111Z,19.36
2018-01-08T14:08:35.263Z,20.60
2018-01-08T14:11:03.529Z,14.78
2018-01-08T14:16:48.810Z,16.90
2018-01-08T14:19:17.070Z,18.40
2018-01-08T14:21:48.993Z,18.40
2018-01-08T14:24:17.283Z,21.64
2018-01-08T14:29:38.499Z,19.22
2018-01-08T14:32:06.790Z,20.14
2018-01-08T14:34:35.094Z,16.94
2018-01-08T14:37:03.387Z,21.22
2018-01-08T14:39:42.431Z,18.54
2018-01-08T14:42:10.741Z,17.12
2018-01-08T14:44:44.784Z,18.00
2018-01-08T14:47:13.071Z,20.60
2018-01-08T14:49:44.742Z,17.40
2018-01-08T14:52:13.026Z,19.34
2018-01-08T14:54:41.346Z,17.52
2018-01-08T14:57:09.637Z,22.90
2018-01-08T14:59:56.908Z,19.86
2018-01-08T15:02:25.175Z,23.82
2018-01-08T15:04:53.508Z,22.34
2018-01-08T15:07:21.772Z,23.02
2018-01-08T15:09:53.146Z,23.62
2018-01-08T15:12:21.433Z,23.42
2018-01-08T15:14:57.171Z,19.56
2018-01-08T15:17:25.436Z,27.72
2018-01-08T15:19:53.745Z,22.10
2018-01-08T15:22:35.250Z,21.52
2018-01-08T15:25:03.544Z,19.02
2018-01-08T15:30:24.780Z,18.50
2018-01-08T15:32:53.036Z,18.78
2018-01-08T15:38:18.291Z,22.18
2018-01-08T15:40:46.571Z,21.94
2018-01-08T15:43:14.849Z,28.54
2018-01-08T15:45:43.124Z,19.38
2018-01-08T15:48:11.415Z,22.28
2018-01-08T15:50:39.680Z,20.44
2018-01-08T15:53:07.983Z,22.06
2018-01-08T15:55:36.243Z,23.56
2018-01-08T15:58:04.534Z,23.78
2018-01-08T16:00:32.833Z,23.46
2018-01-08T16:03:04.945Z,21.68
2018-01-08T16:05:33.235Z,21.54
2018-01-08T16:08:01.558Z,16.52
2018-01-08T16:10:30.162Z,19.58
2018-01-08T16:13:02.185Z,19.28
2018-01-08T16:15:30.136Z,22.72
2018-01-08T16:18:05.959Z,21.46
2018-01-08T16:20:33.499Z,21.84
2018-01-08T16:26:03.340Z,25.64
2018-01-08T16:28:31.608Z,24.44
2018-01-08T16:31:01.034Z,24.16
2018-01-08T16:33:30.147Z,25.28
2018-01-08T16:36:04.804Z,22.58
2018-01-08T16:38:33.096Z,21.62
2018-01-08T16:41:01.410Z,20.74
2018-01-08T16:43:30.020Z,23.90
2018-01-08T16:46:06.154Z,21.42
2018-01-08T16:48:34.444Z,23.40
2018-01-08T16:51:21.200Z,22.52
2018-01-08T16:53:49.485Z,20.28
2018-01-08T16:56:17.816Z,22.90
2018-01-08T16:58:46.080Z,18.96
2018-01-08T17:01:14.388Z,22.94
2018-01-08T17:03:58.602Z,24.02
2018-01-08T17:06:26.860Z,18.78
2018-01-08T17:08:56.101Z,21.48
2018-01-08T17:11:25.250Z,22.10
2018-01-08T17:14:06.638Z,19.66
2018-01-08T17:16:34.893Z,19.70
2018-01-08T17:19:03.922Z,19.76
2018-01-08T17:21:32.200Z,24.40
2018-01-08T17:24:03.696Z,18.62
2018-01-08T17:26:31.979Z,25.56
2018-01-08T17:29:00.374Z,23.56
2018-01-08T17:31:29.222Z,26.46
2018-01-08T17:34:10.487Z,18.00
2018-01-08T17:37:02.475Z,21.46
2018-01-08T17:42:21.412Z,18.46
2018-01-08T17:45:02.456Z,21.54
2018-01-08T17:47:30.718Z,26.50
2018-01-08T17:50:00.606Z,19.94
2018-01-08T17:52:29.554Z,22.46
2018-01-08T17:54:58.928Z,23.08
2018-01-08T17:57:28.870Z,23.34
2018-01-08T18:00:02.350Z,23.82
2018-01-08T18:02:30.650Z,23.98
2018-01-08T18:05:05.173Z,25.24
2018-01-08T18:07:33.457Z,25.94
2018-01-08T18:10:05.242Z,26.12
2018-01-08T18:12:33.526Z,19.80
2018-01-08T18:15:01.917Z,24.66
2018-01-08T18:17:30.252Z,22.28
2018-01-08T18:20:01.962Z,25.84
2018-01-08T18:22:30.292Z,23.46
2018-01-08T18:24:59.608Z,23.90
2018-01-08T18:27:28.894Z,21.88
2018-01-08T18:30:10.854Z,23.88
2018-01-08T18:32:39.165Z,25.82
2018-01-08T18:35:22.920Z,19.94
2018-01-08T18:37:51.229Z,26.22
2018-01-08T18:40:19.576Z,26.80
2018-01-08T18:42:47.842Z,29.02
2018-01-08T18:45:17.182Z,30.12
2018-01-08T18:47:45.480Z,23.98
2018-01-08T18:50:20.925Z,28.16
2018-01-08T18:52:49.236Z,28.64
2018-01-08T18:55:21.378Z,28.50
2018-01-08T18:57:49.676Z,26.54
2018-01-08T19:00:24.421Z,23.18
2018-01-08T19:02:52.714Z,28.18
2018-01-08T19:05:20.996Z,28.96
2018-01-08T19:07:49.308Z,24.88
2018-01-08T19:10:21.291Z,27.54
2018-01-08T19:12:48.819Z,28.66
2018-01-08T19:15:18.077Z,31.70
2018-01-08T19:17:46.382Z,28.70
2018-01-08T19:20:21.091Z,25.08
2018-01-08T19:22:49.386Z,28.22
2018-01-08T19:25:34.742Z,24.16
2018-01-08T19:28:03.050Z,33.32
2018-01-08T19:30:33.364Z,28.98
2018-01-08T19:33:01.640Z,29.12
2018-01-08T19:35:42.851Z,31.66
2018-01-08T19:38:11.170Z,27.46
2018-01-08T19:40:39.596Z,35.10
2018-01-08T19:43:07.900Z,34.00
2018-01-08T19:45:39.553Z,38.42
2018-01-08T19:48:07.889Z,31.62
2018-01-08T19:50:36.266Z,34.60
2018-01-08T19:53:03.804Z,31.50
2018-01-08T19:55:32.191Z,24.62
2018-01-08T19:58:00.922Z,31.52
2018-01-08T20:00:46.702Z,31.86
2018-01-08T20:03:15.011Z,28.26
2018-01-08T20:05:53.069Z,31.28
2018-01-08T20:08:21.407Z,33.18
2018-01-08T20:10:49.731Z,33.56
2018-01-08T20:13:18.025Z,34.20
2018-01-08T20:15:50.700Z,36.16
2018-01-08T20:18:19.002Z,37.06
2018-01-08T20:20:50.739Z,31.68
2018-01-08T20:23:19.086Z,39.16
2018-01-08T20:25:52.494Z,37.78
2018-01-08T20:28:20.852Z,36.64
2018-01-08T20:30:59.610Z,48.90
2018-01-08T20:33:27.135Z,34.88
2018-01-08T20:36:08.411Z,46.40
2018-01-08T20:38:36.787Z,39.96
2018-01-08T20:41:05.130Z,39.48
2018-01-08T20:43:33.431Z,36.94
2018-01-08T20:46:08.885Z,30.96
2018-01-08T20:48:37.225Z,35.42
2018-01-08T20:51:12.709Z,34.00
2018-01-08T20:53:41.022Z,34.24
2018-01-08T20:56:26.699Z,39.18
2018-01-08T20:58:55.006Z,32.26
2018-01-08T21:01:24.276Z,41.42
2018-01-08T21:03:52.624Z,38.76
2018-01-08T21:06:21.655Z,40.98
2018-01-08T21:08:50.002Z,37.18
2018-01-08T21:11:20.318Z,37.38
2018-01-08T21:13:56.108Z,33.46
2018-01-08T21:16:24.442Z,41.46
2018-01-08T21:19:05.947Z,40.96
2018-01-08T21:21:34.294Z,34.02
2018-01-08T21:24:04.623Z,35.70
2018-01-08T21:26:32.962Z,39.66
2018-01-08T21:29:07.495Z,37.94
2018-01-08T21:31:48.806Z,40.42
2018-01-08T21:34:17.140Z,30.40
2018-01-08T21:36:46.464Z,36.74
2018-01-08T21:39:14.775Z,38.94
2018-01-08T21:41:51.155Z,40.46
2018-01-08T21:44:19.476Z,41.88
2018-01-08T21:46:49.813Z,34.54
2018-01-08T21:49:18.126Z,34.10
2018-01-08T21:51:51.761Z,39.90
2018-01-08T21:54:20.071Z,42.14
2018-01-08T21:56:48.411Z,38.80
2018-01-08T21:59:16.722Z,42.38
2018-01-08T22:01:45.099Z,35.46
2018-01-08T22:04:13.441Z,32.88
2018-01-08T22:06:41.773Z,31.72
2018-01-08T22:12:09.594Z,36.32
2018-01-08T22:14:37.941Z,35.84
2018-01-08T22:17:10.006Z,33.90
2018-01-08T22:19:38.336Z,33.98
2018-01-08T22:22:14.995Z,33.66
2018-01-08T22:24:43.345Z,38.48
2018-01-08T22:27:26.863Z,35.04
2018-01-08T22:29:55.230Z,43.18
2018-01-08T22:32:23.591Z,35.06
2018-01-08T22:34:51.900Z,36.72
2018-01-08T22:37:20.314Z,37.74
2018-01-08T22:39:48.666Z,36.42
2018-01-08T22:42:18.028Z,33.50
2018-01-08T22:44:46.329Z,36.64
2018-01-08T22:47:25.849Z,40.66
2018-01-08T22:49:54.184Z,31.26
2018-01-08T22:52:30.103Z,37.46
2018-01-08T22:54:59.441Z,36.72
2018-01-08T22:57:40.466Z,43.16
2018-01-08T23:00:08.791Z,38.78
2018-01-08T23:02:40.136Z,32.52
2018-01-08T23:05:18.407Z,36.66
2018-01-08T23:07:46.712Z,34.00
2018-01-08T23:10:24.582Z,31.02
2018-01-08T23:12:52.933Z,33.12
2018-01-08T23:15:25.072Z,35.52
2018-01-08T23:17:53.417Z,33.28
2018-01-08T23:23:14.690Z,34.56
2018-01-08T23:25:42.989Z,35.66
2018-01-08T23:28:16.463Z,36.06
2018-01-08T23:30:44.018Z,31.48
2018-01-08T23:36:05.315Z,28.56
2018-01-08T23:38:33.648Z,28.50
2018-01-08T23:41:01.931Z,30.84
2018-01-08T23:43:30.259Z,27.64
2018-01-08T23:48:52.171Z,39.64
2018-01-08T23:51:20.491Z,31.32
2018-01-08T23:54:08.068Z,30.02
2018-01-08T23:56:36.332Z,36.28
2018-01-08T23:59:04.607Z,30.82
